Latest Coastal Weather Observations for Ballina

IDN60701

Issued at 4:42 pm EDT Thursday 25 February 2021 (issued every 10 minutes, with the page automatically refreshed every 10 minutes)

About coastal observations | Map of coastal stations | Coastal observations for NSW | Marine services | Other Formats
Station Details ID: 058198 Name: BALLINA AIRPORT AWS Lat: -28.84 Lon: 153.56 Height: 1.3 m
Data from the previous 72 hours. | See also: Recent months at Ballina
Date/Time
EDT
Wind Sea
Height
m
Swell Vis
km
Cloud Weather Temp
°C
Press
MSL
hPa
Rain since
9am
mm
Dir  Spd
kts
Gust
kts
Height
m
Period
s
Dir
25/04:30pm NE 13 17 - - - - 10 Partly cloudy - 25.9 1010.4 0.0
25/04:00pm NE 15 19 - - - - 10 Partly cloudy - 26.3 1010.5 0.0
25/03:30pm NE 14 18 - - - - 10 Partly cloudy - 26.7 1010.8 0.0
25/03:00pm NNE 14 19 - - - - 10 Cloudy - 26.7 1011.0 0.0
25/02:30pm NE 14 18 - - - - 10 Partly cloudy - 27.3 1011.3 0.0
25/02:00pm NE 15 19 - - - - 10 Partly cloudy - 26.9 1011.7 0.0
25/01:30pm NE 13 17 - - - - 10 Partly cloudy - 26.7 1012.1 0.0
25/01:00pm NE 14 18 - - - - 10 Partly cloudy - 26.6 1012.4 0.0
25/12:30pm NE 12 17 - - - - 10 Partly cloudy - 26.7 1012.8 0.0
25/12:00pm NE 13 17 - - - - 10 Mostly clear - 26.7 1013.2 0.0
25/11:30am NE 12 16 - - - - 10 Partly cloudy - 26.7 1013.4 0.0
25/11:00am NE 13 16 - - - - 10 Partly cloudy - 26.2 1013.6 0.0
25/10:30am NE 12 15 - - - - 10 Partly cloudy - 26.2 1013.9 0.0
25/10:00am NE 9 14 - - - - 10 Partly cloudy - 26.0 1014.1 0.0
25/09:30am NE 9 14 - - - - 10 Partly cloudy - 25.1 1014.2 0.0
25/09:00am ENE 9 13 - - - - 10 Mostly cloudy Recent precip. 25.4 1013.9 32.0
25/08:30am ENE 8 11 - - - - 10 Partly cloudy - 25.0 1013.8 32.0
25/08:11am NNW 4 10 - - - - 8 Partly cloudy - 24.1 1013.6 32.0
25/08:00am N 5 6 - - - - 4 Partly cloudy - 23.4 1013.5 31.8
25/07:37am ENE 5 7 - - - - 5 Partly cloudy - 22.7 1013.6 29.4
25/07:30am E 5 7 - - - - 10 Partly cloudy - 22.8 1013.6 28.6
25/07:00am ENE 4 7 - - - - 10 Partly cloudy - 22.1 1013.4 28.6
25/06:30am CALM 0 0 - - - - 10 Partly cloudy - 21.8 1013.2 28.6
25/06:00am ENE 4 5 - - - - 10 Mostly clear Recent precip. 21.9 1013.0 28.6
25/05:37am NE 5 7 - - - - 10 Partly cloudy - 22.3 1013.0 28.6
25/05:30am ENE 6 9 - - - - 10 Partly cloudy - 22.5 1013.1 28.6
25/05:16am ENE 2 7 - - - - 5 Partly cloudy - 22.1 1013.1 27.6
25/05:00am ENE 4 4 - - - - 10 Partly cloudy - 22.2 1012.9 27.0
25/04:30am ENE 5 5 - - - - 10 - - 22.2 1013.1 27.0
25/04:00am ENE 6 8 - - - - 10 Partly cloudy - 22.4 1013.0 27.0
25/03:30am ENE 7 9 - - - - 10 Partly cloudy - 23.4 1013.3 27.0
25/03:00am ENE 8 11 - - - - 10 Mostly clear - 23.2 1013.4 27.0
25/02:30am NE 9 11 - - - - 10 Partly cloudy - 23.3 1013.7 27.0
25/02:00am ENE 9 12 - - - - 10 Partly cloudy - 23.3 1013.8 27.0
25/01:30am ENE 9 12 - - - - 10 Partly cloudy - 23.7 1014.0 27.0
25/01:00am ENE 9 11 - - - - 10 Partly cloudy - 23.4 1014.4 27.0
25/12:30am ENE 9 13 - - - - 10 Partly cloudy - 23.4 1014.7 27.0
25/12:00am ENE 9 12 - - - - 10 Mostly cloudy - 23.6 1015.2 27.0
 
Date/Time
EDT
Wind Sea
Height
m
Swell Vis
km
Cloud Weather Temp
°C
Press
MSL
hPa
Rain since
9am
mm
Dir  Spd
kts
Gust
kts
Height
m
Period
s
Dir
24/11:30pm NE 9 13 - - - - 10 Partly cloudy - 23.7 1015.0 27.0
24/11:00pm ENE 11 16 - - - - 10 Partly cloudy - 23.8 1014.8 27.0
24/10:30pm NE 11 16 - - - - 10 Partly cloudy - 23.8 1014.6 27.0
24/10:00pm ENE 12 15 - - - - 10 Partly cloudy - 23.9 1014.1 27.0
24/09:30pm ENE 12 19 - - - - 10 Partly cloudy - 24.1 1014.2 27.0
24/09:00pm ENE 13 16 - - - - 10 Cloudy - 24.2 1014.4 27.0
24/08:30pm ENE 9 14 - - - - 10 Partly cloudy - 24.0 1014.4 27.0
24/08:00pm ENE 10 13 - - - - 10 Partly cloudy - 23.9 1013.8 27.0
24/07:30pm ENE 11 15 - - - - 10 Partly cloudy - 23.9 1013.4 27.0
24/07:00pm ENE 8 12 - - - - 10 Partly cloudy - 23.7 1013.4 27.0
24/06:30pm ENE 9 13 - - - - 10 Partly cloudy - 23.5 1012.9 27.0
24/06:00pm ENE 9 13 - - - - 10 Cloudy Recent precip. 23.2 1013.0 27.0
24/05:30pm NNE 6 9 - - - - 6 Partly cloudy - 22.6 1013.1 27.0
24/05:19pm NE 6 9 - - - - 10 Partly cloudy - 22.7 1013.2 26.8
24/05:00pm E 8 13 - - - - 4 Partly cloudy - 22.6 1013.4 26.4
24/04:41pm SE 13 18 - - - - 1 Partly cloudy - 21.2 1013.3 23.2
24/04:30pm E 14 19 - - - - 0.5 Partly cloudy - 21.7 1013.1 17.6
24/04:29pm E 14 19 - - - - 0.5 Partly cloudy - 21.7 1013.2 17.2
24/04:20pm ENE 13 19 - - - - 3 Partly cloudy - 22.3 1013.4 4.2
24/04:00pm ENE 14 21 - - - - 10 Partly cloudy - 23.9 1013.2 1.4
24/03:55pm ENE 12 18 - - - - 10 Partly cloudy - 23.7 1013.2 1.4
24/03:30pm E 9 14 - - - - 10 Partly cloudy - 24.4 1013.6 1.4
24/03:27pm ESE 10 13 - - - - 10 Partly cloudy - 24.5 1013.5 1.4
24/03:00pm ENE 12 15 - - - - 10 Cloudy - 26.2 1013.3 1.4
24/02:30pm E 9 13 - - - - 10 Partly cloudy - 25.5 1013.7 1.4
24/02:00pm E 11 15 - - - - 10 Partly cloudy - 25.1 1014.0 1.4
24/01:30pm SE 9 14 - - - - 10 Partly cloudy - 25.8 1014.4 1.4
24/01:00pm SE 9 12 - - - - 10 Partly cloudy - 24.7 1014.7 1.4
24/12:30pm S 8 10 - - - - 8 Partly cloudy - 23.9 1015.0 1.4
24/12:00pm SSW 5 9 - - - - 9 Cloudy Rain 24.2 1015.1 1.0
24/11:30am SE 3 7 - - - - 10 Partly cloudy - 25.6 1015.2 0.0
24/11:00am WNW 2 4 - - - - 10 Partly cloudy - 25.8 1015.3 0.0
24/10:30am WSW 5 7 - - - - 10 Partly cloudy - 24.1 1015.4 0.0
24/10:00am SW 5 7 - - - - 10 Partly cloudy - 23.6 1015.3 0.0
24/09:30am WSW 4 6 - - - - 10 Cloudy - 23.0 1015.2 0.0
24/09:00am W 5 7 - - - - 10 Partly cloudy Recent precip. 22.0 1014.8 23.6
24/08:43am W 5 7 - - - - 10 Cloudy - 21.5 1014.6 23.6
24/08:30am WNW 5 6 - - - - 4 Partly cloudy - 21.4 1014.6 23.6
24/08:27am WNW 5 6 - - - - 4 Partly cloudy - 21.2 1014.6 23.6
24/08:08am N 4 5 - - - - 5 Partly cloudy - 21.2 1014.6 23.0
24/08:00am NW 3 5 - - - - 10 Partly cloudy - 21.1 1014.6 22.6
24/07:50am W 3 5 - - - - 10 Partly cloudy - 21.0 1014.5 22.6
24/07:38am W 4 5 - - - - 10 Partly cloudy - 20.9 1014.2 22.6
24/07:30am WSW 5 6 - - - - 10 Partly cloudy - 20.9 1014.3 22.6
24/07:10am W 6 7 - - - - 10 Partly cloudy - 20.7 1014.1 22.6
24/07:00am WSW 5 7 - - - - 10 Partly cloudy - 20.6 1013.9 22.6
24/06:30am NW 4 5 - - - - 10 Partly cloudy - 20.4 1013.5 22.6
24/06:00am SW 4 5 - - - - 10 Partly cloudy - 20.6 1013.0 22.6
24/05:30am SW 5 6 - - - - 10 Partly cloudy - 20.8 1013.0 22.6
24/05:16am SW 5 6 - - - - 10 Partly cloudy - 20.9 1012.9 22.6
24/05:00am SSW 3 4 - - - - 10 Partly cloudy - 21.2 1012.9 22.6
24/04:36am SW 4 5 - - - - 10 Partly cloudy - 21.1 1012.7 22.6
24/04:30am SW 4 5 - - - - 10 Partly cloudy - 21.1 1012.7 22.6
24/04:00am WNW 4 5 - - - - 10 Partly cloudy - 21.0 1012.2 22.6
24/03:30am NNW 4 5 - - - - 10 Partly cloudy - 21.2 1012.1 22.6
24/03:00am W 3 5 - - - - 10 Cloudy - 21.4 1012.4 22.6
24/02:30am W 3 4 - - - - 10 Partly cloudy - 21.3 1012.7 22.6
24/02:00am N 3 3 - - - - 10 Cloudy - 21.1 1012.6 22.6
24/01:30am N 2 4 - - - - 10 Cloudy - 21.4 1012.8 22.6
24/01:00am S 3 4 - - - - 10 Partly cloudy - 21.8 1012.9 22.6
24/12:30am S 1 5 - - - - 10 Partly cloudy - 21.7 1013.6 22.6
24/12:00am SSW 6 8 - - - - 10 Cloudy - 21.7 1014.0 22.6
 
Date/Time
EDT
Wind Sea
Height
m
Swell Vis
km
Cloud Weather Temp
°C
Press
MSL
hPa
Rain since
9am
mm
Dir  Spd
kts
Gust
kts
Height
m
Period
s
Dir
23/11:30pm NW 5 7 - - - - 10 - - 21.6 1012.9 22.6
23/11:00pm NNW 9 12 - - - - 10 Partly cloudy - 22.1 1013.0 22.6
23/10:30pm NNW 6 8 - - - - 10 Partly cloudy - 22.4 1013.0 22.6
23/10:00pm WNW 3 6 - - - - 10 Partly cloudy - 22.7 1012.4 22.6
23/09:33pm N 3 4 - - - - 10 Partly cloudy - 23.0 1011.4 22.6
23/09:30pm N 3 5 - - - - 10 Partly cloudy - 23.0 1011.3 22.6
23/09:22pm N 4 7 - - - - 10 Partly cloudy - 23.2 1011.2 22.6
23/09:00pm NE 6 10 - - - - 10 Cloudy Thunderstorm 23.0 1011.0 22.6
23/08:31pm ENE 17 26 - - - - 9 Partly cloudy - 21.7 1009.3 22.6
23/08:30pm ENE 17 26 - - - - 10 Partly cloudy - 21.6 1009.4 22.4
23/08:24pm ENE 12 17 - - - - 7 Partly cloudy - 21.6 1010.0 22.4
23/08:21pm ENE 11 16 - - - - 5 Partly cloudy - 22.2 1010.5 22.4
23/08:00pm ESE 7 11 - - - - 3 Partly cloudy - 22.8 1012.6 6.8
23/07:49pm SSE 9 14 - - - - 4 Partly cloudy - 22.6 1012.2 3.8
23/07:40pm SSE 8 14 - - - - 5 Partly cloudy - 23.3 1012.0 2.0
23/07:38pm S 7 12 - - - - 7 Partly cloudy - 23.4 1012.0 1.6
23/07:30pm S 4 8 - - - - 10 Partly cloudy - 24.5 1011.9 1.2
23/07:28pm SSE 3 8 - - - - 10 Partly cloudy - 24.4 1011.7 1.2
23/07:11pm E 6 8 - - - - 10 - - 24.2 1010.4 0.8
23/07:00pm ENE 7 13 - - - - 2 Partly cloudy - 24.3 1010.1 0.8
23/06:51pm NNE 7 11 - - - - 4 Partly cloudy - 24.2 1009.9 0.8
23/06:30pm ENE 11 15 - - - - 8 Partly cloudy - 24.4 1009.2 0.6
23/06:00pm ENE 11 15 - - - - 10 Cloudy Thunderstorm 25.3 1009.0 0.0
23/05:49pm ENE 12 17 - - - - 10 Partly cloudy - 25.7 1008.7 0.0
23/05:35pm ENE 12 15 - - - - 10 Partly cloudy - 25.8 1008.2 0.0
23/05:30pm ENE 12 15 - - - - 10 Partly cloudy - 25.9 1008.1 0.0
23/05:00pm ENE 9 12 - - - - 10 Partly cloudy - 26.2 1008.7 0.0
23/04:31pm NE 12 17 - - - - 10 Partly cloudy - 26.4 1007.7 0.0
23/04:30pm NE 13 17 - - - - 10 Partly cloudy - 26.4 1007.7 0.0
23/04:14pm NE 12 16 - - - - 10 Partly cloudy - 26.8 1007.4 0.0
23/04:08pm NE 12 17 - - - - 10 Partly cloudy - 26.8 1007.7 0.0
23/04:00pm NE 10 15 - - - - 10 Partly cloudy - 26.9 1007.8 0.0
23/03:58pm NE 9 13 - - - - 10 Partly cloudy - 26.9 1008.1 0.0
23/03:30pm NE 15 19 - - - - 10 - - 27.8 1007.8 0.0
23/03:00pm NE 15 20 - - - - 10 Mostly clear - 28.3 1007.7 0.0
23/02:30pm NE 14 20 - - - - 10 Partly cloudy - 28.6 1008.0 0.0
23/02:00pm NE 15 18 - - - - 10 Partly cloudy - 28.9 1008.3 0.0
23/01:30pm NE 13 16 - - - - 10 Partly cloudy - 28.5 1008.6 0.0
23/01:00pm NE 12 16 - - - - 10 Partly cloudy - 29.1 1008.9 0.0
23/12:30pm NE 14 17 - - - - 10 Partly cloudy - 29.2 1009.1 0.0
23/12:00pm E 8 11 - - - - 10 Cloudy - 28.8 1009.3 0.0
23/11:30am N 4 6 - - - - 10 Partly cloudy - 28.7 1009.7 0.0
23/11:00am NNW 6 10 - - - - 10 Partly cloudy - 28.6 1009.8 0.0
23/10:30am N 9 13 - - - - 10 Partly cloudy - 27.9 1009.5 0.0
23/10:00am NNE 10 15 - - - - 10 Partly cloudy - 28.1 1009.1 0.0
23/09:30am N 8 15 - - - - 10 Partly cloudy - 27.2 1009.1 0.0
23/09:00am N 10 13 - - - - 10 - - 26.6 1009.1 0.0
23/08:30am N 8 11 - - - - 10 - - 25.8 1009.1 0.0
23/08:00am N 5 7 - - - - 10 - - 25.4 1009.2 0.0
23/07:30am N 3 4 - - - - 10 Partly cloudy - 23.9 1009.0 0.0
23/07:00am N 3 5 - - - - 10 Cloudy - 23.3 1008.7 0.0
23/06:30am N 5 6 - - - - 10 Cloudy - 23.2 1008.4 0.0
23/06:00am NW 4 4 - - - - 10 Cloudy - 22.9 1008.1 0.0
23/05:30am NW 4 5 - - - - 10 Cloudy - 22.7 1008.0 0.0
23/05:00am CALM 0 0 - - - - 10 Cloudy - 22.4 1007.8 0.0
23/04:30am WNW 1 3 - - - - 10 Cloudy - 22.3 1007.6 0.0
23/04:00am NNE 3 4 - - - - 10 Partly cloudy - 21.6 1007.5 0.0
23/03:30am CALM 0 0 - - - - 10 Partly cloudy - 21.9 1007.6 0.0
23/03:00am CALM 0 0 - - - - 10 Partly cloudy - 21.8 1007.5 0.0
23/02:30am NW 4 5 - - - - 10 Partly cloudy - 22.1 1007.6 0.0
23/02:00am N 3 5 - - - - 10 Partly cloudy - 22.4 1007.5 0.0
23/01:30am CALM 0 0 - - - - 10 Partly cloudy - 22.0 1007.8 0.0
23/01:00am N 1 3 - - - - 10 Partly cloudy - 22.3 1007.9 0.0
23/12:30am NNE 3 5 - - - - 10 - - 22.5 1008.0 0.0
23/12:00am N 5 8 - - - - 10 - - 22.8 1007.5 0.0
 
Date/Time
EDT
Wind Sea
Height
m
Swell Vis
km
Cloud Weather Temp
°C
Press
MSL
hPa
Rain since
9am
mm
Dir  Spd
kts
Gust
kts
Height
m
Period
s
Dir
22/11:30pm N 5 6 - - - - 10 - - 22.6 1007.9 0.0
22/11:00pm N 4 5 - - - - 10 Partly cloudy - 23.2 1008.2 0.0
22/10:30pm NNW 1 4 - - - - 10 - - 23.2 1008.4 0.0
22/10:00pm CALM 0 0 - - - - 10 - - 23.2 1008.2 0.0
22/09:30pm CALM 0 0 - - - - 10 - - 23.3 1008.0 0.0
22/09:00pm N 5 6 - - - - 10 Partly cloudy - 23.5 1007.2 0.0
22/08:30pm NNE 4 6 - - - - 10 - - 24.1 1006.9 0.0
22/08:00pm NE 4 4 - - - - 10 - - 24.0 1006.3 0.0
22/07:30pm NNE 4 5 - - - - 10 - - 24.9 1006.0 0.0
22/07:00pm NE 6 9 - - - - 10 - - 25.6 1005.4 0.0
22/06:30pm NE 7 9 - - - - 10 - - 26.2 1005.0 0.0
22/06:00pm NE 8 13 - - - - 10 - - 27.0 1004.4 0.0
22/05:30pm NE 9 12 - - - - 10 - - 27.2 1004.1 0.0
22/05:00pm NE 10 12 - - - - 10 - - 27.4 1003.9 0.0

Other formats

Comma delimited format used in spreadsheet applications
http://www.bom.gov.au/fwo/IDN60701/IDN60701.94596.axf

JavaScript Object Notation format (JSON) in row-major order
http://www.bom.gov.au/fwo/IDN60701/IDN60701.94596.json

Data quality

Most of these data are generated automatically and are frequently updated. Quality checks on data are not normally performed. It is possible for incorrect values to appear. Refer to information at About Latest Weather Observations and please check the disclaimer before using these data.